WetterOnline ( https://www.wetteronline.de )

Wetter aktuell Berwang

Aktuelles Wetter: Kempten (705m)

6-stündlich | Neueste Meldungen
Ortszeit Temperatur Wetter
Fr, 19.07. 8:00 16.2° C bedeckt
Fr, 19.07. 2:00 15.8° C bedeckt
Do, 18.07. 20:00 23.7° C leicht bewölkt
Do, 18.07. 14:00 24.0° C leicht bewölkt
Do, 18.07. 8:00 14.6° C wolkig
Do, 18.07. 2:00 12.4° C bedeckt
Mi, 17.07. 20:00 22.8° C leicht bewölkt
Mi, 17.07. 14:00 23.9° C wolkig
Ortszeit Temperatur Wetter
Fr, 19.07. 12:10 23.8° C leicht bewölkt
Fr, 19.07. 12:00 23.8° C wolkig
Fr, 19.07. 11:50 23.8° C wolkig
Fr, 19.07. 11:40 23.1° C wolkig
Fr, 19.07. 11:30 22.9° C bedeckt
Fr, 19.07. 11:20 22.9° C bedeckt
Fr, 19.07. 11:00 23.0° C bewölkt
Fr, 19.07. 10:30 22.0° C bewölkt
Fr, 19.07. 10:00 21.8° C wolkig
Fr, 19.07. 9:30 21.5° C wolkig
Ortszeit Relative Feuchte Sichtweite
Fr, 19.07. 8:00 66% 24 km
Fr, 19.07. 2:00 64% 25 km
Do, 18.07. 20:00 37% 23 km
Do, 18.07. 14:00 38% 16 km
Do, 18.07. 8:00 71% 18 km
Do, 18.07. 2:00 92% 9 km
Mi, 17.07. 20:00 48% 28 km
Mi, 17.07. 14:00 43% 22 km
Ortszeit Relative Feuchte Sichtweite
Fr, 19.07. 12:10 49% -
Fr, 19.07. 12:00 48% 21 km
Fr, 19.07. 11:50 48% -
Fr, 19.07. 11:40 51% -
Fr, 19.07. 11:30 50% 20 km
Fr, 19.07. 11:20 50% -
Fr, 19.07. 11:00 52% 22 km
Fr, 19.07. 10:30 51% 29 km
Fr, 19.07. 10:00 53% 13 km
Fr, 19.07. 9:30 55% 12 km
Ortszeit Niederschlagsmenge Niederschlagsart
Fr, 19.07. 8:00 0.0 l/m2 in 12 Std. -
Fr, 19.07. 2:00 0.0 l/m2 in 6 Std. -
Do, 18.07. 20:00 0.0 l/m2 in 12 Std. -
Do, 18.07. 14:00 0.0 l/m2 in 6 Std. -
Do, 18.07. 8:00 0.0 l/m2 in 12 Std. -
Do, 18.07. 2:00 0.0 l/m2 in 6 Std. -
Mi, 17.07. 20:00 0.0 l/m2 in 12 Std. -
Mi, 17.07. 14:00 0.0 l/m2 in 6 Std. -
Ortszeit Niederschlagsmenge Niederschlagsart
Fr, 19.07. 12:10 keine Meldung -
Fr, 19.07. 12:00 0.0 l/m2 in 1 Std. -
Fr, 19.07. 11:50 keine Meldung -
Fr, 19.07. 11:40 keine Meldung -
Fr, 19.07. 11:30 0.0 l/m2 in 1 Std. -
Fr, 19.07. 11:20 keine Meldung -
Fr, 19.07. 11:00 0.0 l/m2 in 1 Std. -
Fr, 19.07. 10:30 0.0 l/m2 in 1 Std. -
Fr, 19.07. 10:00 0.0 l/m2 in 1 Std. -
Fr, 19.07. 9:30 0.0 l/m2 in 1 Std. -
Ortszeit Stärke Spitze Richtung
km/h Bft. km/h Grad Sektor
Fr, 19.07. 8:00 4 1 18 150° SO
Fr, 19.07. 2:00 7 2 14 130° SO
Do, 18.07. 20:00 6 1 35 270° W
Do, 18.07. 14:00 13 3 28 250° W
Do, 18.07. 8:00 7 2 14 150° SO
Do, 18.07. 2:00 7 2 11 110° O
Mi, 17.07. 20:00 7 2 29 320° NW
Mi, 17.07. 14:00 11 2 29 280° W
Ortszeit Stärke Spitze Richtung
km/h Bft. km/h Grad Sektor
Fr, 19.07. 12:10 9 2 - 250° W
Fr, 19.07. 12:00 7 2 18 270° W
Fr, 19.07. 11:50 7 2 - 270° W
Fr, 19.07. 11:40 7 2 - 240° SW
Fr, 19.07. 11:30 6 1 19 240° SW
Fr, 19.07. 11:20 6 1 - 240° SW
Fr, 19.07. 11:00 6 1 19 300° NW
Fr, 19.07. 10:30 7 2 19 280° W
Fr, 19.07. 10:00 9 2 20 210° SW
Fr, 19.07. 9:30 9 2 17 210° SW
Ortszeit Untergrenze Bedeckung Gattung
total tief tief mittel hoch
Fr, 19.07. 8:00 4500 m 8/8 8/8 - - -
Fr, 19.07. 2:00 3300 m 8/8 8/8 - - -
Do, 18.07. 20:00 2700 m 7/8 1/8 - - -
Do, 18.07. 14:00 1800 m 4/8 4/8 - - -
Do, 18.07. 8:00 2700 m 7/8 4/8 - - -
Do, 18.07. 2:00 6900 m 8/8 8/8 - - -
Mi, 17.07. 20:00 6000 m 2/8 2/8 - - -
Mi, 17.07. 14:00 1800 m 7/8 3/8 - - -
Ortszeit Bedeckungsgrad in Achtel und Wolkenuntergrenze
Fr, 19.07. 12:10 1(1410m) 5(3000m) 5(4500m)
Fr, 19.07. 12:00 3(1410m) 3(3000m) 7(4200m)
Fr, 19.07. 11:50 3(1410m) 3(3000m) 7(4200m)
Fr, 19.07. 11:40 1(1410m) 8(4200m) 8(9000m)
Fr, 19.07. 11:30 8(4200m) 8(4800m) 8(9000m)
Fr, 19.07. 11:20 8(4200m) 8(4800m) 8(9000m)
Fr, 19.07. 11:00 4(2400m) 8(5100m) 8(6300m)
Fr, 19.07. 10:30 7(2100m) 8(4500m) 8(6000m)
Fr, 19.07. 10:00 6(2100m) 7(4200m) 7(6300m)
Fr, 19.07. 9:30 2(2100m) 7(5700m) 8(8700m)
Ortszeit Luftdruck NN (hPa) Tendenz (hPa in 3 Std.)
Fr, 19.07. 8:00 1016 + 0,3
Fr, 19.07. 2:00 1015 + 0,3
Do, 18.07. 20:00 1011 + 0,3
Do, 18.07. 14:00 1011 + 0,1
Do, 18.07. 8:00 1013 + 0,2
Do, 18.07. 2:00 1014 + 0,2
Mi, 17.07. 20:00 1010 - 0,5
Mi, 17.07. 14:00 1011 - 0,5
Ortszeit Luftdruck NN (hPa) Tendenz (hPa in 3 Std.)
Fr, 19.07. 12:10 1014 keine Meldung
Fr, 19.07. 12:00 1014 + 0,1
Fr, 19.07. 11:50 1014 keine Meldung
Fr, 19.07. 11:40 1014 keine Meldung
Fr, 19.07. 11:30 1014 + 0,2
Fr, 19.07. 11:20 1014 keine Meldung
Fr, 19.07. 11:00 1014 + 0,3
Fr, 19.07. 10:30 1015 + 0,5
Fr, 19.07. 10:00 1015 + 0,6
Fr, 19.07. 9:30 1015 + 0,5
Ortszeit Schneehöhe (cm)
Fr, 19.07. 8:00 -
Fr, 19.07. 2:00 -
Do, 18.07. 20:00 -
Do, 18.07. 14:00 -
Do, 18.07. 8:00 -
Do, 18.07. 2:00 -
Mi, 17.07. 20:00 -
Mi, 17.07. 14:00 -
Ortszeit Schneehöhe (cm)
Fr, 19.07. 12:10 -
Fr, 19.07. 12:00 -
Fr, 19.07. 11:50 -
Fr, 19.07. 11:40 -
Fr, 19.07. 11:30 -
Fr, 19.07. 11:20 -
Fr, 19.07. 11:00 -
Fr, 19.07. 10:30 -
Fr, 19.07. 10:00 -
Fr, 19.07. 9:30 -
Link zu dieser Seite / Seite empfehlen

Das Wetter in ...